createdAt,value
2019-05-20T00:01:54.278Z,18.50
2019-05-20T00:04:22.866Z,18.50
2019-05-20T00:06:51.517Z,18.50
2019-05-20T00:09:20.177Z,18.40
2019-05-20T00:11:48.733Z,18.40
2019-05-20T00:14:17.338Z,18.30
2019-05-20T00:16:45.880Z,18.20
2019-05-20T00:19:14.480Z,18.30
2019-05-20T00:21:43.098Z,18.20
2019-05-20T00:24:11.713Z,18.20
2019-05-20T00:26:40.290Z,18.20
2019-05-20T00:29:08.904Z,18.20
2019-05-20T00:31:37.706Z,18.20
2019-05-20T00:34:06.282Z,18.20
2019-05-20T00:36:34.871Z,18.20
2019-05-20T00:39:21.563Z,18.20
2019-05-20T00:41:50.310Z,18.20
2019-05-20T00:44:19.128Z,18.20
2019-05-20T00:46:47.705Z,18.30
2019-05-20T00:49:16.283Z,18.30
2019-05-20T00:51:45.469Z,18.20
2019-05-20T00:54:14.264Z,18.20
2019-05-20T00:56:42.940Z,18.20
2019-05-20T00:59:11.547Z,18.20
2019-05-20T01:01:40.170Z,18.20
2019-05-20T01:04:08.739Z,18.20
2019-05-20T01:06:37.331Z,18.10
2019-05-20T01:09:07.835Z,18.10
2019-05-20T01:11:36.433Z,18.00
2019-05-20T01:14:05.420Z,18.00
2019-05-20T01:16:34.035Z,18.00
2019-05-20T01:19:02.551Z,17.90
2019-05-20T01:21:31.135Z,17.90
2019-05-20T01:23:59.718Z,18.00
2019-05-20T01:26:28.261Z,18.00
2019-05-20T01:28:56.853Z,18.00
2019-05-20T01:31:26.022Z,18.00
2019-05-20T01:33:54.615Z,18.00
2019-05-20T01:36:23.233Z,17.90
2019-05-20T01:38:51.762Z,17.90
2019-05-20T01:41:20.307Z,17.80
2019-05-20T01:43:48.778Z,17.80
2019-05-20T01:46:17.289Z,17.70
2019-05-20T01:48:45.901Z,17.70
2019-05-20T01:51:14.501Z,17.70
2019-05-20T01:53:43.054Z,17.70
2019-05-20T01:56:11.627Z,17.70
2019-05-20T01:58:40.262Z,17.70
2019-05-20T02:01:08.789Z,17.60
2019-05-20T02:03:37.529Z,17.60
2019-05-20T02:06:06.509Z,17.60
2019-05-20T02:08:35.072Z,17.60
2019-05-20T02:11:03.718Z,17.50
2019-05-20T02:13:50.167Z,17.50
2019-05-20T02:16:19.832Z,17.50
2019-05-20T02:18:48.395Z,17.50
2019-05-20T02:21:18.458Z,17.40
2019-05-20T02:23:47.029Z,17.40
2019-05-20T02:26:15.612Z,17.30
2019-05-20T02:28:46.166Z,17.30
2019-05-20T02:31:14.755Z,17.30
2019-05-20T02:33:51.701Z,17.20
2019-05-20T02:36:13.647Z,17.20
2019-05-20T02:38:42.478Z,17.20
2019-05-20T02:41:11.095Z,17.00
2019-05-20T02:43:41.047Z,16.90
2019-05-20T02:46:09.723Z,16.80
2019-05-20T02:48:38.271Z,16.80
2019-05-20T02:51:06.965Z,16.70
2019-05-20T02:53:35.443Z,16.60
2019-05-20T02:56:04.104Z,16.60
2019-05-20T02:58:32.683Z,16.60
2019-05-20T03:01:03.917Z,16.60
2019-05-20T03:03:32.477Z,16.70
2019-05-20T03:06:01.013Z,16.70
2019-05-20T03:08:31.186Z,16.70
2019-05-20T03:10:59.691Z,16.80
2019-05-20T03:13:28.194Z,16.70
2019-05-20T03:15:56.683Z,16.80
2019-05-20T03:18:25.233Z,16.80
2019-05-20T03:20:53.765Z,16.80
2019-05-20T03:23:22.349Z,16.80
2019-05-20T03:25:50.929Z,16.60
2019-05-20T03:28:20.778Z,16.60
2019-05-20T03:30:49.858Z,16.50
2019-05-20T03:33:18.434Z,16.60
2019-05-20T03:35:49.453Z,16.60
2019-05-20T03:38:18.103Z,16.70
2019-05-20T03:40:46.666Z,16.70
2019-05-20T03:43:15.822Z,16.70
2019-05-20T03:45:44.417Z,16.80
2019-05-20T03:48:15.219Z,16.70
2019-05-20T03:50:43.713Z,16.70
2019-05-20T03:53:12.249Z,16.60
2019-05-20T03:55:41.093Z,16.50
2019-05-20T03:58:13.398Z,16.50
2019-05-20T04:00:44.423Z,16.40
2019-05-20T04:03:14.089Z,16.40
2019-05-20T04:05:42.674Z,16.50
2019-05-20T04:08:11.349Z,16.40
2019-05-20T04:10:40.202Z,16.50
2019-05-20T04:13:08.771Z,16.40
2019-05-20T04:15:37.373Z,16.40
2019-05-20T04:18:05.944Z,16.40
2019-05-20T04:20:34.547Z,16.40
2019-05-20T04:23:03.143Z,16.40
2019-05-20T04:25:31.872Z,16.50
2019-05-20T04:28:00.477Z,16.50
2019-05-20T04:30:29.047Z,16.50
2019-05-20T04:32:57.654Z,16.60
2019-05-20T04:35:26.217Z,16.60
2019-05-20T04:37:54.811Z,16.60
2019-05-20T04:40:23.408Z,16.60
2019-05-20T04:42:52.006Z,16.50
2019-05-20T04:45:20.624Z,16.50
2019-05-20T04:47:49.165Z,16.50
2019-05-20T04:50:18.683Z,16.50
2019-05-20T04:52:47.282Z,16.50
2019-05-20T04:55:15.851Z,16.50
2019-05-20T04:57:45.976Z,16.40
2019-05-20T05:00:16.709Z,16.40
2019-05-20T05:02:45.526Z,16.40
2019-05-20T05:05:14.349Z,16.50
2019-05-20T05:07:45.425Z,16.70
2019-05-20T05:10:14.970Z,16.80
2019-05-20T05:12:43.550Z,16.90
2019-05-20T05:15:15.009Z,16.90
2019-05-20T05:17:43.503Z,16.90
2019-05-20T05:20:17.866Z,17.00
2019-05-20T05:22:43.510Z,17.00
2019-05-20T05:25:13.085Z,17.20
2019-05-20T05:27:41.629Z,17.30
2019-05-20T05:30:12.559Z,17.30
2019-05-20T05:32:41.441Z,17.30
2019-05-20T05:35:11.799Z,17.40
2019-05-20T05:37:40.264Z,17.50
2019-05-20T05:40:10.044Z,17.50
2019-05-20T05:42:39.655Z,17.60
2019-05-20T05:45:08.651Z,17.80
2019-05-20T05:47:37.720Z,17.90
2019-05-20T05:50:08.464Z,17.90
2019-05-20T05:52:39.063Z,18.00
2019-05-20T05:55:07.938Z,18.00
2019-05-20T05:57:41.122Z,18.10
2019-05-20T06:00:11.972Z,18.20
2019-05-20T06:02:41.025Z,18.30
2019-05-20T06:05:09.514Z,18.40
2019-05-20T06:07:37.983Z,18.40
2019-05-20T06:10:08.152Z,18.50
2019-05-20T06:12:36.698Z,18.60
2019-05-20T06:15:09.274Z,18.90
2019-05-20T06:17:37.974Z,19.00
2019-05-20T06:20:07.107Z,19.10
2019-05-20T06:22:37.279Z,19.30
2019-05-20T06:25:06.108Z,19.60
2019-05-20T06:27:34.699Z,19.70
2019-05-20T06:30:04.817Z,19.90
2019-05-20T06:32:35.053Z,20.10
2019-05-20T06:35:05.258Z,20.30
2019-05-20T06:37:35.467Z,20.40
2019-05-20T06:40:08.057Z,20.50
2019-05-20T06:42:36.644Z,20.60
2019-05-20T06:45:09.150Z,20.70
2019-05-20T06:47:38.553Z,20.80
2019-05-20T06:50:10.448Z,20.70
2019-05-20T06:52:38.984Z,20.90
2019-05-20T06:55:09.655Z,21.00
2019-05-20T06:57:38.177Z,21.10
2019-05-20T07:00:11.577Z,21.00
2019-05-20T07:02:42.188Z,20.90
2019-05-20T07:05:14.264Z,20.90
2019-05-20T07:07:42.830Z,20.80
2019-05-20T07:10:12.554Z,20.90
2019-05-20T07:12:41.958Z,21.00
2019-05-20T07:15:11.289Z,21.10
2019-05-20T07:17:39.879Z,21.20
2019-05-20T07:20:09.145Z,21.30
2019-05-20T07:22:54.665Z,21.50
2019-05-20T07:25:10.185Z,21.50
2019-05-20T07:27:38.718Z,21.50
2019-05-20T07:30:07.698Z,21.60
2019-05-20T07:32:36.246Z,21.70
2019-05-20T07:35:09.626Z,21.70
2019-05-20T07:37:39.506Z,21.70
2019-05-20T07:40:08.457Z,21.60
2019-05-20T07:42:37.244Z,21.70
2019-05-20T07:45:10.297Z,21.40
2019-05-20T07:47:40.389Z,21.40
2019-05-20T07:50:14.882Z,21.30
2019-05-20T07:52:43.561Z,21.30
2019-05-20T07:55:12.243Z,21.20
2019-05-20T07:57:43.758Z,21.30
2019-05-20T08:00:13.204Z,21.30
2019-05-20T08:02:43.193Z,21.20
2019-05-20T08:05:13.192Z,21.20
2019-05-20T08:07:51.980Z,21.00
2019-05-20T08:10:12.133Z,21.10
2019-05-20T08:12:41.203Z,21.10
2019-05-20T08:15:10.135Z,20.90
2019-05-20T08:17:38.693Z,21.00
2019-05-20T08:20:09.063Z,21.10
2019-05-20T08:22:37.658Z,21.40
2019-05-20T08:25:08.357Z,21.40
2019-05-20T08:27:36.851Z,21.50
2019-05-20T08:30:08.292Z,21.30
2019-05-20T08:32:38.398Z,21.30
2019-05-20T08:35:07.617Z,21.50
2019-05-20T08:37:45.485Z,21.50
2019-05-20T08:40:06.642Z,21.50
2019-05-20T08:42:35.211Z,21.40
2019-05-20T08:45:05.867Z,21.40
2019-05-20T08:47:34.489Z,21.40
2019-05-20T08:50:06.476Z,21.60
2019-05-20T08:52:34.719Z,21.80
2019-05-20T08:55:03.373Z,22.00
2019-05-20T08:57:32.024Z,22.10
2019-05-20T09:00:02.095Z,22.40
2019-05-20T09:02:32.207Z,22.50
2019-05-20T09:05:00.770Z,22.50
2019-05-20T09:07:34.911Z,22.50
2019-05-20T09:10:04.182Z,22.40
2019-05-20T09:12:35.977Z,22.40
2019-05-20T09:15:08.328Z,22.50
2019-05-20T09:17:39.211Z,22.50
2019-05-20T09:20:09.099Z,22.70
2019-05-20T09:22:39.266Z,22.80
2019-05-20T09:25:11.086Z,23.00
2019-05-20T09:27:41.055Z,22.90
2019-05-20T09:30:12.182Z,23.00
2019-05-20T09:32:43.053Z,23.30
2019-05-20T09:35:11.615Z,23.50
2019-05-20T09:37:40.211Z,23.50
2019-05-20T09:40:09.325Z,23.40
2019-05-20T09:42:40.820Z,23.30
2019-05-20T09:45:09.458Z,23.20
2019-05-20T09:47:43.044Z,23.30
2019-05-20T09:50:12.386Z,23.40
2019-05-20T09:52:42.235Z,23.50
2019-05-20T09:55:12.308Z,23.50
2019-05-20T09:57:40.898Z,23.60
2019-05-20T10:00:10.404Z,23.80
2019-05-20T10:02:39.086Z,23.80
2019-05-20T10:05:08.598Z,23.80
2019-05-20T10:07:38.148Z,23.80
2019-05-20T10:10:08.459Z,23.80
2019-05-20T10:12:46.012Z,23.80
2019-05-20T10:15:09.973Z,23.80
2019-05-20T10:17:38.581Z,23.60
2019-05-20T10:20:08.123Z,23.60
2019-05-20T10:22:38.620Z,23.80
2019-05-20T10:25:08.110Z,23.80
2019-05-20T10:27:37.959Z,23.90
2019-05-20T10:30:08.296Z,23.80
2019-05-20T10:32:40.791Z,23.80
2019-05-20T10:35:10.203Z,23.80
2019-05-20T10:37:38.842Z,23.90
2019-05-20T10:40:08.284Z,24.00
2019-05-20T10:42:36.864Z,23.80
2019-05-20T10:45:08.269Z,24.00
2019-05-20T10:47:38.220Z,24.10
2019-05-20T10:50:09.233Z,24.20
2019-05-20T10:52:38.355Z,24.50
2019-05-20T10:55:09.893Z,24.60
2019-05-20T10:57:38.542Z,24.50
2019-05-20T11:00:09.718Z,24.50
2019-05-20T11:02:38.373Z,24.60
2019-05-20T11:05:07.260Z,24.70
2019-05-20T11:07:35.924Z,25.00
2019-05-20T11:10:06.645Z,25.10
2019-05-20T11:12:37.538Z,25.20
2019-05-20T11:15:09.154Z,25.10
2019-05-20T11:17:40.092Z,25.10
2019-05-20T11:20:09.107Z,25.30
2019-05-20T11:22:41.769Z,25.50
2019-05-20T11:25:11.018Z,25.50
2019-05-20T11:27:42.053Z,25.60
2019-05-20T11:30:12.575Z,25.40
2019-05-20T11:32:41.246Z,25.20
2019-05-20T11:35:13.305Z,24.90
2019-05-20T11:37:43.115Z,24.70
2019-05-20T11:40:13.510Z,24.90
2019-05-20T11:42:44.116Z,25.00
2019-05-20T11:45:17.324Z,25.10
2019-05-20T11:47:45.933Z,25.20
2019-05-20T11:50:15.662Z,25.20
2019-05-20T11:52:44.274Z,25.10
2019-05-20T11:55:13.349Z,25.10
2019-05-20T11:57:41.958Z,25.00
2019-05-20T12:00:11.608Z,25.00
2019-05-20T12:02:41.148Z,25.00
2019-05-20T12:05:12.416Z,25.10
2019-05-20T12:07:42.034Z,25.20
2019-05-20T12:10:10.902Z,25.20
2019-05-20T12:12:45.422Z,25.20
2019-05-20T12:15:13.985Z,25.30
2019-05-20T12:17:42.539Z,25.30
2019-05-20T12:20:12.814Z,25.20
2019-05-20T12:22:41.836Z,25.20
2019-05-20T12:25:10.442Z,25.20
2019-05-20T12:27:39.379Z,25.30
2019-05-20T12:30:10.524Z,25.50
2019-05-20T12:32:40.619Z,25.60
2019-05-20T12:35:09.995Z,25.60
2019-05-20T12:37:45.538Z,25.80
2019-05-20T12:40:13.146Z,25.80
2019-05-20T12:42:41.725Z,26.00
2019-05-20T12:45:10.706Z,26.10
2019-05-20T12:47:40.891Z,26.10
2019-05-20T12:50:10.840Z,26.20
2019-05-20T12:52:39.390Z,26.20
2019-05-20T12:55:09.788Z,26.20
2019-05-20T12:57:39.556Z,26.10
2019-05-20T13:00:12.893Z,26.00
2019-05-20T13:02:42.660Z,25.90
2019-05-20T13:05:12.129Z,25.70
2019-05-20T13:07:43.880Z,25.70
2019-05-20T13:10:29.130Z,25.50
2019-05-20T13:12:48.248Z,25.40
2019-05-20T13:15:18.595Z,25.10
2019-05-20T13:17:47.485Z,24.90
2019-05-20T13:20:17.707Z,24.70
2019-05-20T13:22:48.142Z,24.50
2019-05-20T13:25:18.608Z,24.30
2019-05-20T13:27:47.235Z,24.00
2019-05-20T13:30:16.397Z,23.80
2019-05-20T13:32:46.675Z,23.80
2019-05-20T13:35:15.428Z,23.80
2019-05-20T13:37:45.722Z,23.90
2019-05-20T13:40:16.288Z,24.00
2019-05-20T13:42:45.855Z,24.00
2019-05-20T13:45:14.487Z,23.90
2019-05-20T13:47:44.029Z,23.90
2019-05-20T13:50:14.119Z,23.80
2019-05-20T13:52:42.737Z,23.70
2019-05-20T13:55:13.038Z,23.70
2019-05-20T13:57:42.063Z,23.80
2019-05-20T14:00:13.541Z,23.80
2019-05-20T14:02:43.670Z,23.90
2019-05-20T14:05:17.193Z,23.90
2019-05-20T14:07:45.798Z,24.00
2019-05-20T14:10:14.999Z,24.00
2019-05-20T14:12:45.835Z,24.00
2019-05-20T14:15:17.920Z,24.00
2019-05-20T14:17:48.945Z,23.90
2019-05-20T14:20:18.111Z,23.90
2019-05-20T14:22:47.025Z,24.00
2019-05-20T14:25:17.043Z,23.90
2019-05-20T14:27:45.936Z,24.00
2019-05-20T14:30:19.051Z,24.00
2019-05-20T14:32:49.161Z,23.90
2019-05-20T14:35:17.678Z,24.00
2019-05-20T14:37:46.966Z,24.00
2019-05-20T14:40:17.363Z,24.00
2019-05-20T14:42:46.249Z,24.00
2019-05-20T14:45:14.905Z,24.00
2019-05-20T14:47:44.301Z,24.10
2019-05-20T14:50:14.596Z,24.00
2019-05-20T14:52:45.000Z,24.00
2019-05-20T14:55:13.871Z,23.80
2019-05-20T14:57:43.767Z,23.70
2019-05-20T15:00:13.988Z,23.70
2019-05-20T15:02:43.295Z,23.70
2019-05-20T15:05:11.977Z,23.60
2019-05-20T15:07:40.494Z,23.60
2019-05-20T15:10:11.167Z,23.60
2019-05-20T15:12:43.433Z,23.60
2019-05-20T15:15:12.357Z,23.50
2019-05-20T15:17:41.290Z,23.50
2019-05-20T15:20:10.320Z,23.50
2019-05-20T15:22:38.838Z,23.50
2019-05-20T15:25:09.220Z,23.50
2019-05-20T15:27:39.973Z,23.50
2019-05-20T15:30:10.535Z,23.50
2019-05-20T15:32:40.598Z,23.50
2019-05-20T15:35:09.435Z,23.50
2019-05-20T15:37:41.071Z,23.40
2019-05-20T15:40:09.864Z,23.40
2019-05-20T15:42:38.445Z,23.40
2019-05-20T15:45:08.854Z,23.40
2019-05-20T15:47:38.169Z,23.30
2019-05-20T15:50:09.997Z,23.30
2019-05-20T15:52:38.289Z,23.30
2019-05-20T15:55:06.835Z,23.20
2019-05-20T15:57:35.999Z,23.10
2019-05-20T16:00:10.351Z,23.00
2019-05-20T16:02:40.530Z,22.90
2019-05-20T16:05:09.505Z,22.80
2019-05-20T16:07:39.012Z,22.70
2019-05-20T16:10:08.497Z,22.70
2019-05-20T16:12:37.837Z,22.70
2019-05-20T16:15:08.187Z,22.60
2019-05-20T16:17:36.783Z,22.60
2019-05-20T16:20:08.816Z,22.60
2019-05-20T16:22:38.416Z,22.60
2019-05-20T16:25:09.336Z,22.60
2019-05-20T16:27:37.854Z,22.50
2019-05-20T16:30:09.041Z,22.40
2019-05-20T16:32:37.678Z,22.20
2019-05-20T16:35:07.368Z,22.00
2019-05-20T16:37:37.482Z,21.60
2019-05-20T16:40:07.810Z,21.40
2019-05-20T16:42:36.601Z,21.20
2019-05-20T16:45:11.726Z,21.00
2019-05-20T16:47:39.484Z,20.90
2019-05-20T16:50:10.209Z,21.00
2019-05-20T16:52:39.031Z,20.90
2019-05-20T16:55:07.829Z,20.80
2019-05-20T16:57:37.204Z,20.70
2019-05-20T17:00:27.437Z,20.70
2019-05-20T17:02:37.724Z,20.70
2019-05-20T17:05:09.341Z,20.70
2019-05-20T17:07:40.493Z,20.60
2019-05-20T17:10:09.431Z,20.50
2019-05-20T17:12:40.039Z,20.40
2019-05-20T17:15:09.219Z,20.30
2019-05-20T17:17:37.841Z,20.20
2019-05-20T17:20:07.156Z,20.10
2019-05-20T17:22:37.062Z,19.80
2019-05-20T17:25:07.241Z,19.70
2019-05-20T17:27:36.074Z,19.70
2019-05-20T17:30:12.333Z,19.50
2019-05-20T17:32:40.591Z,19.30
2019-05-20T17:35:09.518Z,19.30
2019-05-20T17:37:38.364Z,19.20
2019-05-20T17:40:07.920Z,19.10
2019-05-20T17:42:37.094Z,19.00
2019-05-20T17:45:11.952Z,19.00
2019-05-20T17:47:40.508Z,19.00
2019-05-20T17:50:10.971Z,18.90
2019-05-20T17:52:39.554Z,18.90
2019-05-20T17:55:09.670Z,18.90
2019-05-20T17:57:38.612Z,18.90
2019-05-20T18:00:10.895Z,18.90
2019-05-20T18:02:39.555Z,18.90
2019-05-20T18:05:08.512Z,18.80
2019-05-20T18:07:39.074Z,18.70
2019-05-20T18:10:08.961Z,18.70
2019-05-20T18:12:37.542Z,18.70
2019-05-20T18:15:09.476Z,18.70
2019-05-20T18:17:39.524Z,18.70
2019-05-20T18:20:11.240Z,18.60
2019-05-20T18:22:40.097Z,18.60
2019-05-20T18:25:10.416Z,18.50
2019-05-20T18:27:43.486Z,18.50
2019-05-20T18:30:13.030Z,18.40
2019-05-20T18:32:42.844Z,18.50
2019-05-20T18:35:11.801Z,18.50
2019-05-20T18:37:44.676Z,18.50
2019-05-20T18:40:14.986Z,18.50
2019-05-20T18:42:43.741Z,18.50
2019-05-20T18:45:14.636Z,18.60
2019-05-20T18:47:43.171Z,18.50
2019-05-20T18:50:14.063Z,18.30
2019-05-20T18:52:44.429Z,18.20
2019-05-20T18:55:13.081Z,18.20
2019-05-20T18:57:43.237Z,18.30
2019-05-20T19:00:12.415Z,18.40
2019-05-20T19:02:42.192Z,18.30
2019-05-20T19:05:13.567Z,18.30
2019-05-20T19:07:42.209Z,18.30
2019-05-20T19:10:11.072Z,18.30
2019-05-20T19:12:42.985Z,18.30
2019-05-20T19:15:12.412Z,18.30
2019-05-20T19:17:41.034Z,18.30
2019-05-20T19:20:09.852Z,18.40
2019-05-20T19:22:39.965Z,18.50
2019-05-20T19:25:09.757Z,18.50
2019-05-20T19:27:38.338Z,18.50
2019-05-20T19:30:08.267Z,18.50
2019-05-20T19:32:36.817Z,18.60
2019-05-20T19:35:07.108Z,18.70
2019-05-20T19:37:38.273Z,18.70
2019-05-20T19:40:09.057Z,18.70
2019-05-20T19:42:37.809Z,18.80
2019-05-20T19:45:06.896Z,18.70
2019-05-20T19:47:35.461Z,18.80
2019-05-20T19:50:06.381Z,18.60
2019-05-20T19:52:36.251Z,18.60
2019-05-20T19:55:06.189Z,18.60
2019-05-20T19:57:35.954Z,18.70
2019-05-20T20:00:09.210Z,18.80
2019-05-20T20:02:37.804Z,18.80
2019-05-20T20:05:08.085Z,18.90
2019-05-20T20:07:36.919Z,19.00
2019-05-20T20:10:07.133Z,19.00
2019-05-20T20:12:37.321Z,18.90
2019-05-20T20:15:09.575Z,18.80
2019-05-20T20:17:39.928Z,18.80
2019-05-20T20:20:10.474Z,18.70
2019-05-20T20:22:39.077Z,18.60
2019-05-20T20:25:07.877Z,18.60
2019-05-20T20:27:37.287Z,18.50
2019-05-20T20:30:06.640Z,18.50
2019-05-20T20:32:38.277Z,18.50
2019-05-20T20:35:08.040Z,18.60
2019-05-20T20:37:36.605Z,18.70
2019-05-20T20:40:05.606Z,18.70
2019-05-20T20:42:34.121Z,18.70
2019-05-20T20:45:02.635Z,18.70
2019-05-20T20:47:41.293Z,18.70
2019-05-20T20:50:04.741Z,18.70
2019-05-20T20:52:33.299Z,18.70
2019-05-20T20:55:03.206Z,18.70
2019-05-20T20:57:31.777Z,18.70
2019-05-20T21:00:00.271Z,18.70
2019-05-20T21:02:28.822Z,18.70
2019-05-20T21:04:57.650Z,18.70
2019-05-20T21:07:26.193Z,18.70
2019-05-20T21:09:54.789Z,18.70
2019-05-20T21:12:26.044Z,18.70
2019-05-20T21:14:54.654Z,18.70
2019-05-20T21:17:23.460Z,18.70
2019-05-20T21:19:53.101Z,18.70
2019-05-20T21:22:21.712Z,18.80
2019-05-20T21:24:50.277Z,18.80
2019-05-20T21:27:21.073Z,18.70
2019-05-20T21:29:49.656Z,18.70
2019-05-20T21:32:18.204Z,18.60
2019-05-20T21:34:46.787Z,18.60
2019-05-20T21:37:15.279Z,18.60
2019-05-20T21:39:43.878Z,18.60
2019-05-20T21:42:12.447Z,18.50
2019-05-20T21:44:41.025Z,18.60
2019-05-20T21:47:09.637Z,18.60
2019-05-20T21:49:38.193Z,18.50
2019-05-20T21:52:06.741Z,18.50
2019-05-20T21:54:35.325Z,18.60
2019-05-20T21:57:03.914Z,18.60
2019-05-20T21:59:33.721Z,18.50
2019-05-20T22:02:02.583Z,18.50
2019-05-20T22:04:31.161Z,18.50
2019-05-20T22:07:01.338Z,18.40
2019-05-20T22:09:29.926Z,18.40
2019-05-20T22:11:58.486Z,18.30
2019-05-20T22:14:27.067Z,18.30
2019-05-20T22:16:55.661Z,18.30
2019-05-20T22:19:24.241Z,18.40
2019-05-20T22:22:03.388Z,18.40
2019-05-20T22:24:31.982Z,18.50
2019-05-20T22:27:00.535Z,18.50
2019-05-20T22:29:29.034Z,18.40
2019-05-20T22:31:57.605Z,18.50
2019-05-20T22:34:26.119Z,18.50
2019-05-20T22:36:54.682Z,18.40
2019-05-20T22:39:23.250Z,18.40
2019-05-20T22:41:51.861Z,18.50
2019-05-20T22:44:20.421Z,18.50
2019-05-20T22:46:48.996Z,18.50
2019-05-20T22:49:17.611Z,18.50
2019-05-20T22:51:46.184Z,18.50
2019-05-20T22:54:14.849Z,18.50
2019-05-20T22:56:43.411Z,18.50
2019-05-20T22:59:11.992Z,18.50
2019-05-20T23:01:40.547Z,18.60
2019-05-20T23:04:09.134Z,18.60
2019-05-20T23:06:37.711Z,18.50
2019-05-20T23:09:06.626Z,18.50
2019-05-20T23:11:36.959Z,18.50
2019-05-20T23:14:05.507Z,18.50
2019-05-20T23:16:35.315Z,18.40
2019-05-20T23:19:04.878Z,18.40
2019-05-20T23:21:33.441Z,18.40
2019-05-20T23:24:02.003Z,18.40
2019-05-20T23:26:30.587Z,18.40
2019-05-20T23:28:59.187Z,18.40
2019-05-20T23:31:27.740Z,18.50
2019-05-20T23:34:10.335Z,18.50
2019-05-20T23:36:28.844Z,18.50
2019-05-20T23:38:57.323Z,18.40
2019-05-20T23:41:25.917Z,18.50
2019-05-20T23:43:54.478Z,18.50
2019-05-20T23:46:23.100Z,18.50
2019-05-20T23:48:51.698Z,18.50
2019-05-20T23:51:20.257Z,18.40
2019-05-20T23:53:48.861Z,18.50
2019-05-20T23:56:17.461Z,18.50
2019-05-20T23:58:46.033Z,18.50
